Eldersburg, Maryland
Current Conditions -  °F | °C
As of 5:35 PM on Saturday 22 Nov 2014 (Local Time) from KDMW Reporting Station
Scattered Clouds Scattered Clouds  
Wind Chill: 36°   Ceiling: Unl
Heat Index: 39°   Visibility: 10mi
Dew Point: 18°   Wind: 5mph
Humidity: 42%   Direction: 180°S
Pressure: 30.26"   Gusts: NA
Location:  39.3995°N, 76.9748°W
Report Text: KDMW 222235Z AUTO 18004KT 10SM SCT090 04/M08 A3026 RMK AO2
Loading
Personal Weather Stations






























Interactive Weather Map New forecast layout! Learn more

10-Day Weather Forecast

Advertisements
Track Severe Weather on mobile